createdAt,value
2019-05-10T00:02:11.561Z,10.60
2019-05-10T00:04:57.349Z,10.50
2019-05-10T00:07:42.801Z,10.40
2019-05-10T00:10:09.873Z,10.30
2019-05-10T00:12:43.193Z,10.30
2019-05-10T00:15:10.793Z,10.20
2019-05-10T00:17:38.367Z,10.20
2019-05-10T00:20:05.998Z,10.10
2019-05-10T00:22:34.338Z,10.00
2019-05-10T00:25:04.297Z,10.00
2019-05-10T00:27:29.508Z,10.00
2019-05-10T00:29:57.096Z,10.10
2019-05-10T00:32:24.692Z,10.20
2019-05-10T00:34:52.266Z,10.20
2019-05-10T00:37:19.839Z,10.20
2019-05-10T00:39:48.227Z,10.00
2019-05-10T00:42:15.791Z,10.00
2019-05-10T00:44:44.130Z,9.90
2019-05-10T00:47:11.732Z,9.90
2019-05-10T00:49:40.074Z,9.80
2019-05-10T00:52:07.653Z,9.80
2019-05-10T00:54:35.239Z,9.80
2019-05-10T00:57:02.814Z,9.70
2019-05-10T00:59:30.432Z,9.70
2019-05-10T01:01:58.003Z,9.60
2019-05-10T01:04:25.567Z,9.60
2019-05-10T01:06:56.343Z,9.40
2019-05-10T01:09:21.512Z,9.40
2019-05-10T01:11:49.846Z,9.30
2019-05-10T01:14:17.457Z,9.30
2019-05-10T01:16:45.790Z,9.20
2019-05-10T01:19:13.357Z,9.20
2019-05-10T01:21:41.213Z,9.20
2019-05-10T01:24:09.082Z,9.20
2019-05-10T01:26:36.652Z,9.30
2019-05-10T01:29:04.250Z,9.30
2019-05-10T01:31:32.590Z,9.40
2019-05-10T01:34:00.213Z,9.40
2019-05-10T01:36:27.787Z,9.40
2019-05-10T01:38:55.358Z,9.30
2019-05-10T01:41:22.962Z,9.30
2019-05-10T01:43:50.539Z,9.20
2019-05-10T01:46:18.871Z,9.10
2019-05-10T01:48:46.467Z,9.10
2019-05-10T01:51:14.044Z,9.10
2019-05-10T01:53:42.391Z,8.90
2019-05-10T01:56:09.975Z,8.90
2019-05-10T01:58:37.537Z,8.80
2019-05-10T02:01:05.468Z,8.80
2019-05-10T02:03:33.821Z,8.70
2019-05-10T02:06:01.392Z,8.70
2019-05-10T02:08:29.001Z,8.70
2019-05-10T02:10:56.569Z,8.60
2019-05-10T02:13:24.139Z,8.60
2019-05-10T02:15:51.748Z,8.70
2019-05-10T02:18:19.322Z,8.70
2019-05-10T02:20:46.893Z,8.70
2019-05-10T02:23:14.846Z,8.60
2019-05-10T02:25:42.426Z,8.50
2019-05-10T02:28:09.992Z,8.50
2019-05-10T02:30:37.598Z,8.40
2019-05-10T02:33:05.177Z,8.50
2019-05-10T02:35:32.768Z,8.50
2019-05-10T02:38:00.332Z,8.50
2019-05-10T02:40:27.903Z,8.50
2019-05-10T02:42:55.520Z,8.40
2019-05-10T02:45:23.088Z,8.40
2019-05-10T02:47:50.656Z,8.30
2019-05-10T02:50:18.255Z,8.30
2019-05-10T02:52:46.408Z,8.20
2019-05-10T02:55:13.973Z,8.10
2019-05-10T02:57:41.585Z,8.10
2019-05-10T03:00:09.915Z,8.00
2019-05-10T03:02:37.489Z,8.00
2019-05-10T03:05:05.134Z,8.00
2019-05-10T03:07:32.708Z,8.10
2019-05-10T03:10:00.286Z,8.10
2019-05-10T03:12:27.880Z,8.00
2019-05-10T03:14:55.451Z,8.10
2019-05-10T03:17:23.058Z,8.10
2019-05-10T03:19:50.629Z,8.00
2019-05-10T03:22:18.198Z,7.90
2019-05-10T03:24:46.578Z,7.80
2019-05-10T03:27:14.156Z,7.80
2019-05-10T03:29:42.484Z,7.70
2019-05-10T03:32:10.087Z,7.70
2019-05-10T03:34:38.426Z,7.60
2019-05-10T03:37:05.995Z,7.60
2019-05-10T03:39:33.592Z,7.50
2019-05-10T03:42:01.924Z,7.40
2019-05-10T03:44:29.570Z,7.40
2019-05-10T03:46:57.143Z,7.40
2019-05-10T03:49:24.712Z,7.30
2019-05-10T03:51:52.313Z,7.30
2019-05-10T03:54:20.653Z,7.20
2019-05-10T03:56:48.237Z,7.20
2019-05-10T03:59:15.809Z,7.20
2019-05-10T04:01:43.430Z,7.10
2019-05-10T04:04:11.002Z,7.20
2019-05-10T04:06:38.578Z,7.30
2019-05-10T04:09:06.177Z,7.20
2019-05-10T04:11:34.513Z,7.10
2019-05-10T04:14:02.089Z,7.10
2019-05-10T04:16:29.694Z,7.00
2019-05-10T04:18:57.268Z,7.20
2019-05-10T04:21:24.839Z,7.30
2019-05-10T04:23:52.446Z,7.30
2019-05-10T04:26:20.016Z,7.20
2019-05-10T04:28:48.357Z,7.10
2019-05-10T04:31:15.957Z,7.10
2019-05-10T04:33:44.298Z,7.10
2019-05-10T04:36:12.913Z,7.00
2019-05-10T04:38:39.475Z,7.00
2019-05-10T04:41:07.044Z,7.20
2019-05-10T04:43:34.608Z,7.20
2019-05-10T04:46:02.233Z,7.10
2019-05-10T04:48:29.802Z,7.10
2019-05-10T04:50:58.138Z,7.10
2019-05-10T04:53:26.004Z,7.10
2019-05-10T04:55:53.574Z,7.10
2019-05-10T04:58:21.191Z,7.20
2019-05-10T05:00:48.767Z,7.20
2019-05-10T05:03:16.337Z,7.40
2019-05-10T05:05:43.994Z,7.60
2019-05-10T05:08:11.565Z,7.60
2019-05-10T05:10:39.144Z,7.60
2019-05-10T05:13:06.792Z,7.60
2019-05-10T05:15:35.105Z,7.80
2019-05-10T05:18:02.750Z,7.80
2019-05-10T05:20:30.609Z,7.80
2019-05-10T05:22:58.197Z,7.90
2019-05-10T05:25:26.159Z,7.90
2019-05-10T05:28:06.716Z,8.00
2019-05-10T05:30:21.370Z,8.00
2019-05-10T05:32:49.037Z,8.10
2019-05-10T05:35:16.595Z,8.10
2019-05-10T05:37:44.171Z,8.20
2019-05-10T05:40:11.790Z,8.20
2019-05-10T05:42:39.359Z,8.30
2019-05-10T05:45:06.938Z,8.40
2019-05-10T05:47:37.483Z,8.50
2019-05-10T05:50:02.167Z,8.50
2019-05-10T05:52:29.738Z,8.60
2019-05-10T05:54:58.946Z,8.70
2019-05-10T05:57:27.480Z,8.80
2019-05-10T05:59:57.713Z,8.90
2019-05-10T06:02:20.479Z,8.90
2019-05-10T06:04:48.052Z,9.00
2019-05-10T06:07:15.676Z,9.10
2019-05-10T06:09:43.238Z,9.20
2019-05-10T06:12:12.739Z,9.40
2019-05-10T06:14:43.158Z,9.50
2019-05-10T06:17:06.471Z,9.60
2019-05-10T06:19:34.939Z,9.60
2019-05-10T06:22:04.507Z,9.80
2019-05-10T06:24:30.092Z,10.00
2019-05-10T06:27:03.267Z,10.10
2019-05-10T06:29:26.414Z,10.20
2019-05-10T06:31:53.993Z,10.20
2019-05-10T06:34:21.612Z,10.20
2019-05-10T06:36:49.181Z,10.30
2019-05-10T06:39:16.759Z,10.30
2019-05-10T06:41:44.462Z,10.40
2019-05-10T06:44:11.976Z,10.50
2019-05-10T06:46:39.550Z,10.50
2019-05-10T06:49:09.755Z,10.80
2019-05-10T06:51:34.747Z,10.80
2019-05-10T06:54:02.325Z,10.90
2019-05-10T06:56:30.220Z,10.90
2019-05-10T06:59:12.296Z,11.00
2019-05-10T07:01:25.367Z,11.00
2019-05-10T07:03:53.783Z,11.10
2019-05-10T07:06:21.354Z,11.10
2019-05-10T07:08:51.526Z,11.00
2019-05-10T07:11:16.541Z,11.00
2019-05-10T07:13:47.228Z,11.00
2019-05-10T07:16:14.544Z,11.00
2019-05-10T07:18:40.106Z,11.10
2019-05-10T07:21:08.737Z,11.10
2019-05-10T07:23:39.095Z,11.10
2019-05-10T07:26:02.861Z,11.30
2019-05-10T07:28:30.488Z,11.50
2019-05-10T07:30:58.839Z,11.50
2019-05-10T07:33:26.414Z,11.50
2019-05-10T07:35:54.065Z,11.50
2019-05-10T07:38:23.489Z,11.60
2019-05-10T07:40:49.230Z,11.60
2019-05-10T07:43:24.860Z,11.60
2019-05-10T07:45:44.430Z,11.60
2019-05-10T07:48:12.024Z,11.60
2019-05-10T07:50:42.210Z,11.70
2019-05-10T07:53:07.817Z,11.70
2019-05-10T07:55:35.392Z,11.70
2019-05-10T07:58:05.097Z,11.80
2019-05-10T08:00:32.129Z,11.90
2019-05-10T08:03:12.374Z,11.90
2019-05-10T08:05:29.496Z,11.90
2019-05-10T08:07:54.880Z,12.00
2019-05-10T08:10:22.889Z,12.10
2019-05-10T08:12:50.463Z,12.20
2019-05-10T08:15:19.544Z,12.20
2019-05-10T08:17:45.767Z,12.20
2019-05-10T08:20:20.464Z,12.20
2019-05-10T08:22:44.892Z,12.20
2019-05-10T08:25:08.440Z,12.30
2019-05-10T08:27:36.019Z,12.40
2019-05-10T08:30:20.943Z,12.40
2019-05-10T08:32:34.852Z,12.40
2019-05-10T08:35:05.056Z,12.60
2019-05-10T08:37:34.271Z,12.70
2019-05-10T08:39:57.014Z,12.80
2019-05-10T08:42:37.739Z,12.80
2019-05-10T08:45:03.184Z,12.90
2019-05-10T08:47:27.264Z,12.90
2019-05-10T08:50:06.089Z,12.90
2019-05-10T08:52:19.410Z,13.00
2019-05-10T08:54:43.394Z,13.00
2019-05-10T08:57:17.917Z,13.10
2019-05-10T08:59:38.585Z,13.30
2019-05-10T09:02:06.162Z,13.60
2019-05-10T09:04:42.200Z,13.70
2019-05-10T09:07:02.871Z,13.70
2019-05-10T09:09:33.914Z,13.70
2019-05-10T09:11:57.791Z,13.60
2019-05-10T09:14:24.273Z,13.50
2019-05-10T09:17:00.623Z,13.60
2019-05-10T09:19:28.254Z,13.60
2019-05-10T09:21:49.956Z,13.70
2019-05-10T09:24:14.517Z,13.80
2019-05-10T09:26:46.750Z,13.80
2019-05-10T09:29:11.971Z,13.80
2019-05-10T09:31:39.379Z,13.80
2019-05-10T09:34:05.184Z,13.90
2019-05-10T09:36:36.319Z,13.90
2019-05-10T09:39:00.332Z,13.90
2019-05-10T09:41:36.068Z,14.00
2019-05-10T09:43:56.278Z,14.00
2019-05-10T09:46:24.665Z,14.00
2019-05-10T09:48:54.625Z,14.00
2019-05-10T09:51:25.482Z,14.00
2019-05-10T09:53:48.634Z,14.00
2019-05-10T09:56:17.333Z,14.00
2019-05-10T09:58:43.371Z,14.10
2019-05-10T10:01:17.764Z,14.10
2019-05-10T10:03:43.207Z,14.30
2019-05-10T10:06:10.225Z,14.30
2019-05-10T10:08:33.787Z,14.30
2019-05-10T10:11:10.431Z,14.40
2019-05-10T10:13:39.332Z,14.40
2019-05-10T10:15:58.135Z,14.40
2019-05-10T10:18:25.556Z,14.40
2019-05-10T10:20:52.222Z,14.40
2019-05-10T10:23:24.524Z,14.50
2019-05-10T10:25:48.446Z,14.50
2019-05-10T10:28:17.551Z,14.60
2019-05-10T10:30:42.993Z,14.70
2019-05-10T10:33:11.909Z,14.70
2019-05-10T10:35:38.217Z,14.70
2019-05-10T10:38:08.067Z,14.70
2019-05-10T10:40:35.481Z,14.70
2019-05-10T10:43:01.443Z,14.70
2019-05-10T10:45:29.020Z,14.70
2019-05-10T10:47:57.286Z,14.70
2019-05-10T10:50:24.221Z,14.80
2019-05-10T10:52:52.565Z,14.80
2019-05-10T10:55:20.139Z,14.80
2019-05-10T10:57:48.243Z,14.80
2019-05-10T11:00:20.370Z,14.80
2019-05-10T11:02:46.883Z,14.90
2019-05-10T11:05:10.851Z,14.90
2019-05-10T11:07:41.568Z,14.90
2019-05-10T11:10:15.216Z,15.00
2019-05-10T11:12:33.977Z,15.10
2019-05-10T11:15:01.551Z,15.10
2019-05-10T11:17:30.775Z,15.20
2019-05-10T11:19:56.785Z,15.30
2019-05-10T11:22:27.312Z,15.40
2019-05-10T11:25:01.393Z,15.30
2019-05-10T11:27:20.327Z,15.40
2019-05-10T11:29:47.895Z,15.40
2019-05-10T11:32:16.936Z,15.50
2019-05-10T11:34:43.864Z,15.60
2019-05-10T11:37:11.437Z,15.50
2019-05-10T11:39:45.495Z,15.60
2019-05-10T11:42:07.367Z,15.70
2019-05-10T11:44:34.235Z,15.80
2019-05-10T11:47:02.575Z,15.90
2019-05-10T11:49:30.795Z,15.90
2019-05-10T11:51:58.855Z,16.00
2019-05-10T11:54:25.353Z,16.00
2019-05-10T11:56:58.441Z,16.00
2019-05-10T11:59:21.788Z,16.10
2019-05-10T12:01:54.795Z,16.20
2019-05-10T12:04:23.875Z,16.20
2019-05-10T12:06:50.088Z,16.20
2019-05-10T12:09:12.530Z,16.20
2019-05-10T12:11:43.711Z,16.20
2019-05-10T12:14:06.565Z,16.30
2019-05-10T12:16:34.146Z,16.40
2019-05-10T12:19:10.695Z,16.40
2019-05-10T12:21:32.234Z,16.40
2019-05-10T12:24:06.825Z,16.50
2019-05-10T12:28:52.123Z,16.60
2019-05-10T12:31:21.092Z,16.70
2019-05-10T12:33:47.298Z,16.70
2019-05-10T12:36:25.453Z,16.70
2019-05-10T12:38:43.341Z,16.70
2019-05-10T12:41:11.689Z,16.90
2019-05-10T12:43:40.937Z,16.90
2019-05-10T12:46:06.890Z,16.90
2019-05-10T12:48:35.879Z,16.90
2019-05-10T12:51:08.317Z,17.00
2019-05-10T12:53:31.518Z,17.00
2019-05-10T12:55:57.237Z,17.00
2019-05-10T12:58:24.882Z,17.10
2019-05-10T13:00:54.301Z,17.30
2019-05-10T13:03:25.267Z,17.30
2019-05-10T13:05:52.574Z,17.40
2019-05-10T13:08:15.281Z,17.50
2019-05-10T13:10:43.363Z,17.50
2019-05-10T13:13:10.425Z,17.60
2019-05-10T13:15:38.794Z,17.70
2019-05-10T13:18:06.370Z,17.70
2019-05-10T13:20:36.684Z,17.50
2019-05-10T13:23:02.577Z,17.50
2019-05-10T13:25:30.154Z,17.50
2019-05-10T13:27:57.777Z,17.60
2019-05-10T13:30:28.003Z,17.60
2019-05-10T13:32:58.644Z,17.80
2019-05-10T13:35:20.587Z,17.90
2019-05-10T13:37:48.136Z,18.00
2019-05-10T13:40:15.710Z,18.00
2019-05-10T13:42:45.789Z,18.00
2019-05-10T13:45:10.877Z,18.00
2019-05-10T13:47:38.506Z,18.00
2019-05-10T13:50:06.083Z,18.00
2019-05-10T13:52:38.101Z,17.90
2019-05-10T13:55:01.592Z,18.10
2019-05-10T13:57:29.148Z,18.10
2019-05-10T13:59:57.405Z,18.10
2019-05-10T14:02:32.510Z,18.10
2019-05-10T14:04:51.941Z,18.10
2019-05-10T14:07:19.513Z,18.10
2019-05-10T14:09:47.459Z,18.00
2019-05-10T14:12:16.179Z,17.90
2019-05-10T14:14:42.623Z,17.90
2019-05-10T14:17:11.002Z,18.20
2019-05-10T14:19:38.583Z,18.20
2019-05-10T14:22:07.433Z,18.40
2019-05-10T14:24:35.263Z,18.40
2019-05-10T14:27:02.829Z,18.60
2019-05-10T14:29:34.795Z,18.80
2019-05-10T14:31:58.091Z,19.10
2019-05-10T14:34:25.680Z,19.30
2019-05-10T14:36:54.137Z,19.40
2019-05-10T14:39:21.709Z,19.40
2019-05-10T14:41:50.872Z,19.40
2019-05-10T14:44:17.672Z,19.20
2019-05-10T14:46:46.013Z,19.10
2019-05-10T14:49:13.599Z,19.10
2019-05-10T14:51:57.716Z,19.10
2019-05-10T14:54:09.554Z,19.10
2019-05-10T14:56:37.492Z,19.20
2019-05-10T14:59:05.073Z,19.20
2019-05-10T15:01:36.901Z,19.30
2019-05-10T15:04:01.400Z,19.50
2019-05-10T15:06:36.271Z,19.50
2019-05-10T15:08:56.560Z,19.60
2019-05-10T15:11:26.366Z,19.50
2019-05-10T15:13:52.799Z,19.50
2019-05-10T15:16:30.774Z,19.50
2019-05-10T15:18:57.130Z,19.50
2019-05-10T15:21:24.714Z,19.80
2019-05-10T15:23:55.244Z,19.90
2019-05-10T15:26:19.911Z,19.90
2019-05-10T15:28:47.485Z,20.00
2019-05-10T15:31:16.131Z,20.00
2019-05-10T15:33:43.718Z,19.90
2019-05-10T15:36:11.275Z,19.90
2019-05-10T15:38:39.823Z,19.80
2019-05-10T15:41:06.469Z,19.70
2019-05-10T15:43:34.050Z,19.60
2019-05-10T15:46:02.001Z,19.50
2019-05-10T15:48:29.598Z,19.40
2019-05-10T15:50:57.178Z,19.30
2019-05-10T15:53:27.270Z,19.20
2019-05-10T15:55:53.304Z,19.20
2019-05-10T15:58:20.906Z,19.20
2019-05-10T16:00:48.537Z,19.40
2019-05-10T16:03:16.950Z,19.60
2019-05-10T16:05:44.527Z,19.60
2019-05-10T16:08:13.743Z,19.60
2019-05-10T16:10:40.907Z,19.60
2019-05-10T16:13:08.092Z,19.90
2019-05-10T16:15:36.448Z,19.80
2019-05-10T16:18:04.024Z,19.80
2019-05-10T16:20:36.989Z,19.70
2019-05-10T16:23:02.920Z,19.70
2019-05-10T16:25:26.848Z,19.60
2019-05-10T16:27:54.737Z,19.50
2019-05-10T16:30:22.315Z,19.40
2019-05-10T16:32:50.286Z,19.30
2019-05-10T16:35:17.865Z,19.20
2019-05-10T16:37:45.441Z,19.10
2019-05-10T16:40:13.815Z,18.90
2019-05-10T16:42:42.155Z,18.80
2019-05-10T16:45:10.362Z,18.80
2019-05-10T16:47:37.979Z,18.80
2019-05-10T16:50:05.613Z,18.70
2019-05-10T16:52:33.195Z,18.70
2019-05-10T16:55:03.631Z,18.70
2019-05-10T16:57:31.891Z,18.50
2019-05-10T17:00:02.161Z,18.50
2019-05-10T17:02:30.758Z,18.50
2019-05-10T17:04:54.114Z,18.40
2019-05-10T17:07:21.745Z,18.30
2019-05-10T17:09:54.115Z,18.30
2019-05-10T17:12:16.903Z,18.20
2019-05-10T17:14:44.530Z,18.10
2019-05-10T17:17:12.110Z,18.00
2019-05-10T17:19:39.685Z,18.10
2019-05-10T17:22:07.941Z,18.00
2019-05-10T17:24:36.014Z,17.90
2019-05-10T17:27:03.593Z,17.80
2019-05-10T17:29:31.544Z,17.70
2019-05-10T17:31:59.122Z,17.60
2019-05-10T17:34:29.432Z,17.50
2019-05-10T17:36:57.952Z,17.50
2019-05-10T17:39:26.168Z,17.50
2019-05-10T17:41:49.810Z,17.50
2019-05-10T17:44:23.280Z,17.30
2019-05-10T17:46:50.291Z,17.30
2019-05-10T17:49:14.701Z,17.20
2019-05-10T17:51:42.411Z,17.20
2019-05-10T17:54:09.922Z,17.10
2019-05-10T17:56:38.717Z,17.10
2019-05-10T17:59:05.742Z,17.00
2019-05-10T18:01:32.709Z,17.00
2019-05-10T18:04:00.293Z,16.90
2019-05-10T18:06:28.284Z,16.90
2019-05-10T18:08:56.636Z,16.70
2019-05-10T18:11:24.221Z,16.70
2019-05-10T18:13:52.276Z,16.70
2019-05-10T18:16:19.865Z,16.70
2019-05-10T18:18:48.563Z,16.70
2019-05-10T18:21:21.289Z,16.70
2019-05-10T18:23:43.388Z,16.70
2019-05-10T18:26:11.003Z,16.60
2019-05-10T18:28:38.588Z,16.60
2019-05-10T18:31:06.936Z,16.60
2019-05-10T18:33:34.566Z,16.60
2019-05-10T18:36:02.135Z,16.50
2019-05-10T18:38:30.813Z,16.40
2019-05-10T18:40:57.804Z,16.30
2019-05-10T18:43:25.385Z,16.20
2019-05-10T18:45:53.727Z,16.20
2019-05-10T18:48:21.378Z,16.20
2019-05-10T18:50:48.937Z,16.10
2019-05-10T18:53:16.511Z,16.00
2019-05-10T18:55:44.125Z,16.00
2019-05-10T18:58:12.463Z,15.70
2019-05-10T19:00:40.357Z,15.70
2019-05-10T19:03:07.659Z,15.70
2019-05-10T19:05:35.239Z,15.70
2019-05-10T19:08:05.608Z,15.80
2019-05-10T19:10:30.454Z,15.70
2019-05-10T19:13:01.636Z,15.60
2019-05-10T19:15:25.602Z,15.50
2019-05-10T19:17:53.978Z,15.40
2019-05-10T19:20:21.550Z,15.30
2019-05-10T19:22:49.489Z,15.20
2019-05-10T19:25:17.106Z,15.20
2019-05-10T19:27:50.509Z,15.00
2019-05-10T19:30:20.140Z,14.90
2019-05-10T19:32:42.151Z,14.80
2019-05-10T19:35:10.490Z,14.70
2019-05-10T19:37:38.068Z,14.70
2019-05-10T19:40:05.713Z,14.60
2019-05-10T19:42:37.390Z,14.60
2019-05-10T19:45:00.867Z,14.50
2019-05-10T19:47:29.316Z,14.50
2019-05-10T19:49:56.893Z,14.40
2019-05-10T19:52:26.071Z,14.40
2019-05-10T19:54:52.509Z,14.40
2019-05-10T19:57:20.090Z,14.30
2019-05-10T19:59:48.614Z,14.20
2019-05-10T20:02:16.053Z,14.20
2019-05-10T20:04:44.388Z,14.10
2019-05-10T20:07:11.963Z,14.00
2019-05-10T20:09:39.940Z,13.90
2019-05-10T20:12:07.519Z,13.90
2019-05-10T20:14:35.867Z,13.90
2019-05-10T20:17:03.494Z,13.90
2019-05-10T20:19:31.067Z,13.80
2019-05-10T20:21:58.641Z,13.60
2019-05-10T20:24:26.325Z,13.50
2019-05-10T20:26:53.903Z,13.40
2019-05-10T20:29:22.245Z,13.40
2019-05-10T20:31:49.880Z,13.40
2019-05-10T20:34:17.456Z,13.30
2019-05-10T20:36:45.033Z,13.20
2019-05-10T20:39:12.634Z,13.10
2019-05-10T20:41:40.557Z,13.10
2019-05-10T20:44:08.208Z,13.00
2019-05-10T20:46:35.795Z,13.00
2019-05-10T20:49:03.371Z,12.90
2019-05-10T20:51:31.031Z,12.90
2019-05-10T20:53:58.604Z,12.80
2019-05-10T20:56:26.189Z,12.90
2019-05-10T20:58:54.577Z,13.10
2019-05-10T21:01:22.149Z,13.10
2019-05-10T21:03:49.722Z,13.00
2019-05-10T21:06:17.819Z,13.00
2019-05-10T21:08:45.393Z,12.90
2019-05-10T21:11:13.542Z,12.80
2019-05-10T21:13:42.475Z,12.70
2019-05-10T21:16:10.059Z,12.80
2019-05-10T21:18:37.631Z,12.70
2019-05-10T21:21:05.232Z,12.60
2019-05-10T21:23:32.812Z,12.50
2019-05-10T21:26:00.438Z,12.50
2019-05-10T21:28:28.018Z,12.60
2019-05-10T21:30:55.590Z,12.70
2019-05-10T21:33:23.215Z,12.70
2019-05-10T21:35:50.792Z,12.70
2019-05-10T21:38:31.972Z,12.70
2019-05-10T21:40:45.992Z,12.70
2019-05-10T21:43:13.564Z,12.60
2019-05-10T21:45:41.139Z,12.60
2019-05-10T21:48:08.758Z,12.50
2019-05-10T21:50:37.487Z,12.40
2019-05-10T21:53:05.707Z,12.40
2019-05-10T21:55:33.278Z,12.40
2019-05-10T21:58:01.621Z,12.30
2019-05-10T22:00:32.074Z,12.30
2019-05-10T22:03:00.443Z,12.20
2019-05-10T22:05:28.049Z,12.20
2019-05-10T22:07:56.751Z,12.10
2019-05-10T22:10:24.319Z,12.10
2019-05-10T22:12:51.943Z,12.10
2019-05-10T22:15:20.281Z,12.00
2019-05-10T22:17:47.853Z,12.00
2019-05-10T22:20:15.496Z,11.90
2019-05-10T22:22:43.033Z,12.10
2019-05-10T22:25:10.625Z,12.20
2019-05-10T22:27:38.212Z,12.20
2019-05-10T22:30:05.793Z,12.10
2019-05-10T22:32:34.128Z,11.90
2019-05-10T22:35:01.761Z,11.80
2019-05-10T22:37:29.331Z,11.80
2019-05-10T22:39:56.907Z,11.90
2019-05-10T22:42:24.509Z,11.90
2019-05-10T22:44:52.075Z,11.90
2019-05-10T22:47:20.471Z,11.80
2019-05-10T22:49:48.033Z,11.80
2019-05-10T22:52:15.610Z,11.70
2019-05-10T22:54:43.188Z,11.70
2019-05-10T22:57:11.284Z,11.60
2019-05-10T22:59:38.857Z,11.60
2019-05-10T23:02:06.537Z,11.60
2019-05-10T23:04:34.917Z,11.50
2019-05-10T23:07:02.501Z,11.50
2019-05-10T23:09:30.074Z,11.50
2019-05-10T23:11:57.695Z,11.40
2019-05-10T23:14:26.038Z,11.30
2019-05-10T23:16:53.610Z,11.30
2019-05-10T23:19:21.233Z,11.30
2019-05-10T23:21:48.806Z,11.30
2019-05-10T23:24:19.397Z,11.20
2019-05-10T23:26:47.773Z,11.30
2019-05-10T23:29:15.349Z,11.30
2019-05-10T23:31:42.930Z,11.30
2019-05-10T23:34:10.538Z,11.20
2019-05-10T23:36:38.109Z,11.20
2019-05-10T23:39:05.679Z,11.20
2019-05-10T23:41:34.056Z,11.10
2019-05-10T23:44:02.392Z,11.10
2019-05-10T23:46:29.980Z,11.10
2019-05-10T23:48:57.594Z,11.10
2019-05-10T23:51:25.171Z,11.00
2019-05-10T23:53:53.274Z,11.10
2019-05-10T23:56:20.850Z,11.20
2019-05-10T23:58:48.440Z,11.10
